Carrington, North Dakota
Current Conditions -  °F | °C
As of 7:35 PM on Thursday 27 Nov 2014 (Local Time) from K46D Reporting Station
Light Snow Light Snow  
Wind Chill: -14°   Ceiling: 100
Heat Index:   Visibility: 1.5mi
Dew Point:   Wind: 16mph
Humidity: 100%   Direction: 130°SE
Pressure: 30.06"   Gusts: NA
Location:  47.45°N, 99.13°W
Report Text: K46D 280135Z AUTO 13014KT 1 1/2SM -SN BKN001 BKN005 OVC012 M15/M15 A3006 RMK AO2 P0002
Loading
Personal Weather Stations






























Interactive Weather Map New forecast layout! Learn more

10-Day Weather Forecast

Advertisements
Track Severe Weather on mobile